createdAt,value
2022-08-05T00:00:46.238Z,28.70
2022-08-05T00:03:38.414Z,28.68
2022-08-05T00:04:38.372Z,28.66
2022-08-05T00:06:04.978Z,28.67
2022-08-05T00:09:38.405Z,28.66
2022-08-05T00:10:38.402Z,28.65
2022-08-05T00:11:49.320Z,28.64
2022-08-05T00:12:56.520Z,28.59
2022-08-05T00:13:39.977Z,28.57
2022-08-05T00:14:38.405Z,28.59
2022-08-05T00:15:55.301Z,28.60
2022-08-05T00:16:52.118Z,28.63
2022-08-05T00:17:38.399Z,28.64
2022-08-05T00:20:38.463Z,28.65
2022-08-05T00:21:38.421Z,28.66
2022-08-05T00:22:38.436Z,28.64
2022-08-05T00:26:38.458Z,28.59
2022-08-05T00:27:38.515Z,28.55
2022-08-05T00:30:38.446Z,28.57
2022-08-05T00:31:52.974Z,28.56
2022-08-05T00:32:38.477Z,28.57
2022-08-05T00:34:55.990Z,28.58
2022-08-05T00:34:56.560Z,28.54
2022-08-05T00:37:10.602Z,28.50
2022-08-05T00:37:52.328Z,28.47
2022-08-05T00:38:38.452Z,28.49
2022-08-05T00:39:44.486Z,28.48
2022-08-05T00:40:38.497Z,28.49
2022-08-05T00:41:51.421Z,28.48
2022-08-05T00:42:38.483Z,28.49
2022-08-05T00:43:47.101Z,28.46
2022-08-05T00:44:38.478Z,28.33
2022-08-05T00:45:43.714Z,28.22
2022-08-05T00:46:43.410Z,28.06
2022-08-05T00:47:56.508Z,28.01
2022-08-05T00:48:50.476Z,27.90
2022-08-05T00:49:51.177Z,27.82
2022-08-05T00:50:38.509Z,27.73
2022-08-05T00:51:51.640Z,27.60
2022-08-05T00:52:39.114Z,27.55
2022-08-05T00:53:45.330Z,27.41
2022-08-05T00:54:38.552Z,27.32
2022-08-05T00:55:43.537Z,27.18
2022-08-05T00:56:38.514Z,27.12
2022-08-05T00:57:55.367Z,27.06
2022-08-05T00:58:38.521Z,26.99
2022-08-05T00:59:44.650Z,26.92
2022-08-05T01:00:38.615Z,26.69
2022-08-05T01:01:48.262Z,26.58
2022-08-05T01:02:38.526Z,26.44
2022-08-05T01:03:38.599Z,26.33
2022-08-05T01:04:38.523Z,26.35
2022-08-05T01:05:38.533Z,26.36
2022-08-05T01:06:38.529Z,26.29
2022-08-05T01:08:29.706Z,26.12
2022-08-05T01:08:42.759Z,26.10
2022-08-05T01:10:38.541Z,26.11
2022-08-05T01:11:38.548Z,26.15
2022-08-05T01:12:38.552Z,26.16
2022-08-05T01:13:58.823Z,26.20
2022-08-05T01:14:38.550Z,26.31
2022-08-05T01:15:38.562Z,26.39
2022-08-05T01:16:38.600Z,26.42
2022-08-05T01:17:39.993Z,26.36
2022-08-05T01:20:01.880Z,26.22
2022-08-05T01:20:41.637Z,26.18
2022-08-05T01:21:38.635Z,26.17
2022-08-05T01:22:38.584Z,26.10
2022-08-05T01:23:38.598Z,26.05
2022-08-05T01:24:38.602Z,25.88
2022-08-05T01:25:40.152Z,25.73
2022-08-05T01:26:38.629Z,25.59
2022-08-05T01:27:50.651Z,25.48
2022-08-05T01:28:39.440Z,25.42
2022-08-05T01:29:38.590Z,25.40
2022-08-05T01:30:38.594Z,25.48
2022-08-05T01:31:42.705Z,25.55
2022-08-05T01:32:38.632Z,25.61
2022-08-05T01:33:38.609Z,25.60
2022-08-05T01:34:38.600Z,25.53
2022-08-05T01:35:51.920Z,25.42
2022-08-05T01:36:42.374Z,25.41
2022-08-05T01:37:44.529Z,25.37
2022-08-05T01:38:38.612Z,25.34
2022-08-05T01:39:47.560Z,25.30
2022-08-05T01:40:38.634Z,25.31
2022-08-05T01:41:38.671Z,25.33
2022-08-05T01:42:38.645Z,25.34
2022-08-05T01:43:38.645Z,25.44
2022-08-05T01:44:38.648Z,25.50
2022-08-05T01:45:43.119Z,25.55
2022-08-05T01:46:42.395Z,25.59
2022-08-05T01:47:39.944Z,25.57
2022-08-05T01:48:38.658Z,25.53
2022-08-05T01:50:01.976Z,25.50
2022-08-05T01:50:38.664Z,25.48
2022-08-05T01:51:38.716Z,25.44
2022-08-05T01:52:38.671Z,25.39
2022-08-05T01:53:55.035Z,25.26
2022-08-05T01:54:46.305Z,25.03
2022-08-05T01:55:38.652Z,24.74
2022-08-05T01:58:09.366Z,24.61
2022-08-05T01:58:10.898Z,24.50
2022-08-05T01:58:44.600Z,24.32
2022-08-05T01:59:38.675Z,24.08
2022-08-05T02:00:38.679Z,23.88
2022-08-05T02:01:40.123Z,23.79
2022-08-05T02:02:38.677Z,23.70
2022-08-05T02:03:38.693Z,23.58
2022-08-05T02:04:38.696Z,23.48
2022-08-05T02:05:38.695Z,23.37
2022-08-05T02:06:39.151Z,23.32
2022-08-05T02:07:38.688Z,23.31
2022-08-05T02:08:54.800Z,23.35
2022-08-05T02:09:38.710Z,23.42
2022-08-05T02:10:38.702Z,23.47
2022-08-05T02:11:42.277Z,23.55
2022-08-05T02:12:38.709Z,23.61
2022-08-05T02:13:53.518Z,23.71
2022-08-05T02:14:38.719Z,23.76
2022-08-05T02:15:38.734Z,23.86
2022-08-05T02:16:38.728Z,24.01
2022-08-05T02:18:31.264Z,24.18
2022-08-05T02:18:41.903Z,24.35
2022-08-05T02:19:47.413Z,24.43
2022-08-05T02:20:39.139Z,24.52
2022-08-05T02:21:43.401Z,24.61
2022-08-05T02:22:38.737Z,24.69
2022-08-05T02:23:38.748Z,24.71
2022-08-05T02:24:38.740Z,24.70
2022-08-05T02:26:38.761Z,24.68
2022-08-05T02:27:57.881Z,24.69
2022-08-05T02:28:38.762Z,24.66
2022-08-05T02:30:00.027Z,24.63
2022-08-05T02:30:38.774Z,24.62
2022-08-05T02:31:38.788Z,24.60
2022-08-05T02:33:39.287Z,24.57
2022-08-05T02:34:42.071Z,24.60
2022-08-05T02:35:49.927Z,24.58
2022-08-05T02:36:38.768Z,24.59
2022-08-05T02:37:38.847Z,24.63
2022-08-05T02:38:38.789Z,24.62
2022-08-05T02:39:41.269Z,24.60
2022-08-05T02:41:58.145Z,24.62
2022-08-05T02:42:38.783Z,24.65
2022-08-05T02:43:38.783Z,24.72
2022-08-05T02:44:38.786Z,24.79
2022-08-05T02:45:51.889Z,24.88
2022-08-05T02:46:43.853Z,24.97
2022-08-05T02:48:11.496Z,25.05
2022-08-05T02:48:38.800Z,25.08
2022-08-05T02:49:40.626Z,25.10
2022-08-05T02:50:38.851Z,25.18
2022-08-05T02:52:03.725Z,25.28
2022-08-05T02:52:38.823Z,25.36
2022-08-05T02:53:39.701Z,25.44
2022-08-05T02:54:41.186Z,25.50
2022-08-05T02:56:38.819Z,25.48
2022-08-05T02:58:20.087Z,25.54
2022-08-05T02:58:43.632Z,25.63
2022-08-05T02:59:50.144Z,25.67
2022-08-05T03:00:38.835Z,25.65
2022-08-05T03:01:38.937Z,25.67
2022-08-05T03:02:38.845Z,25.69
2022-08-05T03:04:03.360Z,25.70
2022-08-05T03:04:38.866Z,25.71
2022-08-05T03:06:54.854Z,25.66
2022-08-05T03:06:55.959Z,25.61
2022-08-05T03:08:00.612Z,25.58
2022-08-05T03:08:38.849Z,25.59
2022-08-05T03:09:43.927Z,25.62
2022-08-05T03:10:38.863Z,25.64
2022-08-05T03:11:55.164Z,25.66
2022-08-05T03:12:38.855Z,25.67
2022-08-05T03:15:38.873Z,25.68
2022-08-05T03:16:38.875Z,25.69
2022-08-05T03:17:41.631Z,25.68
2022-08-05T03:18:38.891Z,25.67
2022-08-05T03:21:41.706Z,25.65
2022-08-05T03:22:38.905Z,25.62
2022-08-05T03:23:38.902Z,25.61
2022-08-05T03:24:38.911Z,25.62
2022-08-05T03:26:04.941Z,25.60
2022-08-05T03:26:38.920Z,25.56
2022-08-05T03:27:39.508Z,25.48
2022-08-05T03:28:38.900Z,25.29
2022-08-05T03:29:46.065Z,25.15
2022-08-05T03:30:41.073Z,25.00
2022-08-05T03:31:56.978Z,24.82
2022-08-05T03:32:38.923Z,24.76
2022-08-05T03:33:51.068Z,24.72
2022-08-05T03:34:38.920Z,24.69
2022-08-05T03:36:38.927Z,24.65
2022-08-05T03:37:46.392Z,24.59
2022-08-05T03:38:38.936Z,24.57
2022-08-05T03:39:57.661Z,24.56
2022-08-05T03:40:39.164Z,24.53
2022-08-05T03:44:08.335Z,24.56
2022-08-05T03:45:57.645Z,24.59
2022-08-05T03:46:38.982Z,24.60
2022-08-05T03:47:41.268Z,24.65
2022-08-05T03:48:42.521Z,24.69
2022-08-05T03:50:38.951Z,24.73
2022-08-05T03:52:39.069Z,24.78
2022-08-05T03:54:59.203Z,24.81
2022-08-05T03:55:34.754Z,24.92
2022-08-05T03:55:53.871Z,24.86
2022-08-05T03:56:05.471Z,24.97
2022-08-05T03:56:41.275Z,25.00
2022-08-05T03:57:41.688Z,25.02
2022-08-05T03:58:41.087Z,25.04
2022-08-05T03:59:46.984Z,25.02
2022-08-05T04:00:39.007Z,24.98
2022-08-05T04:01:39.062Z,24.95
2022-08-05T04:02:47.890Z,24.92
2022-08-05T04:03:39.017Z,24.88
2022-08-05T04:04:38.998Z,24.86
2022-08-05T04:05:40.176Z,24.73
2022-08-05T04:06:47.802Z,24.68
2022-08-05T04:07:58.212Z,24.63
2022-08-05T04:08:39.021Z,24.52
2022-08-05T04:09:39.029Z,24.43
2022-08-05T04:10:39.022Z,24.41
2022-08-05T04:13:50.247Z,24.42
2022-08-05T04:14:39.017Z,24.40
2022-08-05T04:15:39.049Z,24.33
2022-08-05T04:16:39.056Z,24.25
2022-08-05T04:17:56.253Z,24.26
2022-08-05T04:18:39.037Z,24.30
2022-08-05T04:19:39.024Z,24.34
2022-08-05T04:20:41.314Z,24.38
2022-08-05T04:22:10.007Z,24.40
2022-08-05T04:22:39.047Z,24.38
2022-08-05T04:24:06.626Z,24.33
2022-08-05T04:24:44.526Z,24.29
2022-08-05T04:26:00.348Z,24.24
2022-08-05T04:26:39.060Z,24.23
2022-08-05T04:27:43.776Z,24.22
2022-08-05T04:28:39.062Z,24.27
2022-08-05T04:29:39.135Z,24.30
2022-08-05T04:30:39.077Z,24.33
2022-08-05T04:31:39.455Z,24.37
2022-08-05T04:32:39.158Z,24.38
2022-08-05T04:34:17.623Z,24.37
2022-08-05T04:34:42.964Z,24.38
2022-08-05T04:36:16.118Z,24.37
2022-08-05T04:36:45.729Z,24.42
2022-08-05T04:38:00.909Z,24.47
2022-08-05T04:38:40.221Z,24.54
2022-08-05T04:39:40.134Z,24.59
2022-08-05T04:40:39.111Z,24.64
2022-08-05T04:41:39.106Z,24.67
2022-08-05T04:42:39.106Z,24.71
2022-08-05T04:43:40.520Z,24.76
2022-08-05T04:44:39.111Z,24.78
2022-08-05T04:45:48.104Z,24.82
2022-08-05T04:46:39.111Z,24.83
2022-08-05T04:48:39.120Z,24.81
2022-08-05T04:50:02.025Z,24.78
2022-08-05T04:51:03.002Z,24.74
2022-08-05T04:51:39.126Z,24.68
2022-08-05T04:52:39.126Z,24.66
2022-08-05T04:53:39.138Z,24.62
2022-08-05T04:54:39.143Z,24.55
2022-08-05T04:56:14.947Z,24.50
2022-08-05T04:56:39.133Z,24.43
2022-08-05T04:57:39.144Z,24.37
2022-08-05T04:58:39.141Z,24.21
2022-08-05T04:59:40.717Z,24.08
2022-08-05T05:00:39.137Z,24.12
2022-08-05T05:02:08.263Z,24.15
2022-08-05T05:02:43.095Z,24.21
2022-08-05T05:03:42.158Z,24.31
2022-08-05T05:04:47.581Z,24.40
2022-08-05T05:06:36.656Z,24.37
2022-08-05T05:07:39.271Z,24.42
2022-08-05T05:08:42.833Z,24.54
2022-08-05T05:09:39.184Z,24.64
2022-08-05T05:10:39.168Z,24.72
2022-08-05T05:11:52.902Z,24.78
2022-08-05T05:12:39.181Z,24.84
2022-08-05T05:13:43.318Z,24.78
2022-08-05T05:14:49.352Z,24.81
2022-08-05T05:15:54.424Z,24.83
2022-08-05T05:16:39.178Z,24.82
2022-08-05T05:17:55.939Z,24.83
2022-08-05T05:18:39.192Z,24.86
2022-08-05T05:19:44.314Z,24.89
2022-08-05T05:20:39.184Z,24.92
2022-08-05T05:21:39.186Z,24.94
2022-08-05T05:22:41.007Z,24.97
2022-08-05T05:24:03.907Z,25.00
2022-08-05T05:24:57.352Z,25.03
2022-08-05T05:25:41.031Z,25.06
2022-08-05T05:26:39.696Z,25.11
2022-08-05T05:27:45.422Z,25.17
2022-08-05T05:28:42.795Z,25.24
2022-08-05T05:30:03.423Z,25.27
2022-08-05T05:30:39.228Z,25.37
2022-08-05T05:32:39.231Z,25.45
2022-08-05T05:34:39.241Z,25.50
2022-08-05T05:35:42.454Z,25.53
2022-08-05T05:36:39.252Z,25.52
2022-08-05T05:37:59.382Z,25.55
2022-08-05T05:38:39.263Z,25.54
2022-08-05T05:39:43.288Z,25.60
2022-08-05T05:40:43.594Z,25.66
2022-08-05T05:41:40.590Z,25.69
2022-08-05T05:42:39.252Z,25.72
2022-08-05T05:43:56.905Z,25.68
2022-08-05T05:44:43.194Z,25.56
2022-08-05T05:45:39.291Z,25.48
2022-08-05T05:46:39.296Z,25.50
2022-08-05T05:48:07.196Z,25.56
2022-08-05T05:48:39.281Z,25.65
2022-08-05T05:49:39.285Z,25.72
2022-08-05T05:50:41.083Z,25.79
2022-08-05T05:51:50.021Z,25.93
2022-08-05T05:52:40.661Z,26.07
2022-08-05T05:53:54.496Z,26.21
2022-08-05T05:54:50.128Z,26.36
2022-08-05T05:55:51.526Z,26.50
2022-08-05T05:56:39.312Z,26.63
2022-08-05T05:57:52.390Z,26.74
2022-08-05T05:58:39.291Z,26.84
2022-08-05T05:59:40.123Z,26.94
2022-08-05T06:00:39.300Z,27.02
2022-08-05T06:01:39.822Z,27.03
2022-08-05T06:02:39.307Z,27.08
2022-08-05T06:03:53.731Z,26.99
2022-08-05T06:04:39.386Z,26.95
2022-08-05T06:05:39.355Z,26.78
2022-08-05T06:06:39.316Z,26.68
2022-08-05T06:07:42.164Z,26.56
2022-08-05T06:08:39.694Z,26.54
2022-08-05T06:10:00.046Z,26.51
2022-08-05T06:10:49.068Z,26.53
2022-08-05T06:11:39.531Z,26.60
2022-08-05T06:12:42.206Z,26.65
2022-08-05T06:13:40.888Z,26.69
2022-08-05T06:14:40.133Z,26.79
2022-08-05T06:16:29.280Z,26.85
2022-08-05T06:16:43.348Z,26.91
2022-08-05T06:17:52.880Z,26.95
2022-08-05T06:18:39.495Z,27.00
2022-08-05T06:19:39.353Z,27.08
2022-08-05T06:20:39.344Z,27.13
2022-08-05T06:21:42.885Z,27.16
2022-08-05T06:22:40.394Z,27.17
2022-08-05T06:23:43.970Z,27.19
2022-08-05T06:24:39.385Z,27.26
2022-08-05T06:26:12.746Z,27.30
2022-08-05T06:26:39.354Z,27.33
2022-08-05T06:28:10.624Z,27.32
2022-08-05T06:28:39.380Z,27.35
2022-08-05T06:29:51.056Z,27.36
2022-08-05T06:30:39.396Z,27.37
2022-08-05T06:31:39.415Z,27.34
2022-08-05T06:32:39.400Z,27.36
2022-08-05T06:34:07.373Z,27.33
2022-08-05T06:36:03.408Z,27.28
2022-08-05T06:36:57.495Z,27.29
2022-08-05T06:37:57.666Z,27.31
2022-08-05T06:38:39.433Z,27.36
2022-08-05T06:39:39.496Z,27.39
2022-08-05T06:41:41.327Z,27.45
2022-08-05T06:42:39.780Z,27.48
2022-08-05T06:43:58.875Z,27.52
2022-08-05T06:44:39.423Z,27.55
2022-08-05T06:46:39.434Z,27.54
2022-08-05T06:48:13.795Z,27.58
2022-08-05T06:48:55.259Z,27.60
2022-08-05T06:50:00.467Z,27.64
2022-08-05T06:50:39.432Z,27.65
2022-08-05T06:52:40.541Z,27.70
2022-08-05T06:53:43.552Z,27.75
2022-08-05T06:54:39.479Z,27.82
2022-08-05T06:56:39.450Z,27.91
2022-08-05T06:58:03.108Z,27.98
2022-08-05T06:58:39.717Z,28.15
2022-08-05T06:59:42.379Z,28.35
2022-08-05T07:00:39.528Z,28.50
2022-08-05T07:01:40.725Z,28.68
2022-08-05T07:02:39.497Z,28.85
2022-08-05T07:03:39.461Z,29.00
2022-08-05T07:04:39.475Z,29.10
2022-08-05T07:05:41.122Z,29.18
2022-08-05T07:06:39.485Z,29.27
2022-08-05T07:07:43.005Z,29.41
2022-08-05T07:08:39.502Z,29.50
2022-08-05T07:09:40.459Z,29.59
2022-08-05T07:10:39.488Z,29.65
2022-08-05T07:11:39.860Z,29.72
2022-08-05T07:12:39.503Z,29.77
2022-08-05T07:13:59.296Z,29.70
2022-08-05T07:14:39.489Z,29.66
2022-08-05T07:16:01.966Z,29.59
2022-08-05T07:18:00.541Z,29.53
2022-08-05T07:18:08.485Z,29.56
2022-08-05T07:20:32.150Z,29.48
2022-08-05T07:20:39.522Z,29.49
2022-08-05T07:22:39.538Z,29.44
2022-08-05T07:24:43.998Z,29.47
2022-08-05T07:25:56.067Z,29.46
2022-08-05T07:26:39.522Z,29.45
2022-08-05T07:27:57.489Z,29.41
2022-08-05T07:28:39.542Z,29.25
2022-08-05T07:30:27.291Z,29.12
2022-08-05T07:30:43.733Z,29.11
2022-08-05T07:31:40.786Z,29.16
2022-08-05T07:32:39.585Z,28.89
2022-08-05T07:33:39.573Z,28.81
2022-08-05T07:34:42.287Z,28.53
2022-08-05T07:36:05.385Z,28.44
2022-08-05T07:36:39.551Z,28.53
2022-08-05T07:37:39.609Z,28.44
2022-08-05T07:38:43.654Z,28.47
2022-08-05T07:40:39.626Z,28.46
2022-08-05T07:42:13.130Z,28.51
2022-08-05T07:42:39.596Z,28.60
2022-08-05T07:43:39.579Z,28.65
2022-08-05T07:44:39.640Z,28.75
2022-08-05T07:45:57.635Z,28.84
2022-08-05T07:46:39.610Z,28.77
2022-08-05T07:47:42.049Z,28.91
2022-08-05T07:49:02.029Z,28.89
2022-08-05T07:49:43.593Z,29.00
2022-08-05T07:50:39.628Z,29.14
2022-08-05T07:51:40.848Z,29.30
2022-08-05T07:52:39.621Z,29.51
2022-08-05T07:53:50.230Z,29.61
2022-08-05T07:54:41.398Z,29.50
2022-08-05T07:55:44.226Z,29.34
2022-08-05T07:57:02.295Z,29.40
2022-08-05T07:57:55.288Z,29.34
2022-08-05T07:58:57.435Z,29.40
2022-08-05T07:59:40.979Z,29.44
2022-08-05T08:00:39.672Z,29.58
2022-08-05T08:01:41.649Z,29.65
2022-08-05T08:03:13.365Z,29.79
2022-08-05T08:03:44.476Z,29.78
2022-08-05T08:04:39.637Z,29.81
2022-08-05T08:05:40.631Z,29.93
2022-08-05T08:06:39.655Z,30.09
2022-08-05T08:07:58.991Z,30.26
2022-08-05T08:08:39.638Z,30.49
2022-08-05T08:09:39.652Z,30.69
2022-08-05T08:10:39.660Z,30.56
2022-08-05T08:11:50.268Z,30.60
2022-08-05T08:12:49.813Z,30.55
2022-08-05T08:13:43.018Z,30.37
2022-08-05T08:14:40.840Z,30.15
2022-08-05T08:16:35.167Z,30.18
2022-08-05T08:16:50.138Z,30.05
2022-08-05T08:17:39.670Z,30.06
2022-08-05T08:18:39.708Z,29.70
2022-08-05T08:20:43.036Z,29.71
2022-08-05T08:20:59.832Z,29.75
2022-08-05T08:22:39.683Z,29.74
2022-08-05T08:24:02.763Z,29.68
2022-08-05T08:24:51.460Z,29.63
2022-08-05T08:25:59.691Z,29.70
2022-08-05T08:26:39.705Z,29.62
2022-08-05T08:27:44.851Z,29.70
2022-08-05T08:28:55.091Z,29.89
2022-08-05T08:30:05.480Z,30.06
2022-08-05T08:30:47.428Z,30.18
2022-08-05T08:31:39.711Z,30.47
2022-08-05T08:32:39.856Z,30.80
2022-08-05T08:33:39.705Z,30.92
2022-08-05T08:34:39.726Z,31.04
2022-08-05T08:35:41.336Z,31.23
2022-08-05T08:36:47.626Z,31.32
2022-08-05T08:37:39.715Z,31.50
2022-08-05T08:38:39.766Z,31.63
2022-08-05T08:39:49.520Z,31.83
2022-08-05T08:40:39.729Z,32.08
2022-08-05T08:41:52.525Z,32.19
2022-08-05T08:42:50.519Z,32.50
2022-08-05T08:45:16.775Z,32.60
2022-08-05T08:45:22.578Z,32.79
2022-08-05T08:45:39.738Z,32.83
2022-08-05T08:46:39.777Z,32.68
2022-08-05T08:48:06.298Z,32.52
2022-08-05T08:49:04.937Z,32.17
2022-08-05T08:50:05.801Z,32.42
2022-08-05T08:51:21.941Z,32.30
2022-08-05T08:52:03.098Z,32.03
2022-08-05T08:52:39.761Z,32.23
2022-08-05T08:53:44.320Z,32.41
2022-08-05T08:54:39.773Z,32.52
2022-08-05T08:56:03.920Z,32.54
2022-08-05T08:56:39.769Z,32.67
2022-08-05T08:57:42.355Z,32.92
2022-08-05T08:58:44.527Z,33.20
2022-08-05T08:59:41.967Z,33.34
2022-08-05T09:00:39.861Z,33.51
2022-08-05T09:01:42.556Z,33.52
2022-08-05T09:02:39.779Z,33.67
2022-08-05T09:03:45.012Z,33.56
2022-08-05T09:04:58.435Z,33.51
2022-08-05T09:06:07.877Z,33.42
2022-08-05T09:06:39.815Z,33.46
2022-08-05T09:07:57.129Z,33.34
2022-08-05T09:08:40.524Z,33.23
2022-08-05T09:09:39.825Z,33.33
2022-08-05T09:10:40.246Z,33.36
2022-08-05T09:11:51.504Z,33.41
2022-08-05T09:12:39.807Z,33.51
2022-08-05T09:14:09.786Z,33.61
2022-08-05T09:14:56.816Z,33.80
2022-08-05T09:15:39.821Z,33.90
2022-08-05T09:16:39.828Z,33.76
2022-08-05T09:17:43.173Z,33.92
2022-08-05T09:18:42.855Z,33.88
2022-08-05T09:20:01.420Z,33.99
2022-08-05T09:20:39.831Z,34.06
2022-08-05T09:22:18.505Z,33.93
2022-08-05T09:22:40.116Z,33.89
2022-08-05T09:23:43.665Z,33.78
2022-08-05T09:24:39.849Z,33.88
2022-08-05T09:26:03.368Z,34.11
2022-08-05T09:26:39.842Z,34.38
2022-08-05T09:28:04.449Z,34.69
2022-08-05T09:28:39.871Z,35.02
2022-08-05T09:29:47.712Z,35.28
2022-08-05T09:32:40.226Z,35.17
2022-08-05T09:32:46.345Z,35.24
2022-08-05T09:33:39.922Z,35.25
2022-08-05T09:34:39.900Z,35.23
2022-08-05T09:35:39.911Z,35.03
2022-08-05T09:36:54.742Z,34.93
2022-08-05T09:38:16.536Z,34.71
2022-08-05T09:38:39.877Z,34.31
2022-08-05T09:39:45.554Z,34.04
2022-08-05T09:40:39.893Z,33.79
2022-08-05T09:41:39.893Z,33.83
2022-08-05T09:42:39.896Z,33.62
2022-08-05T09:43:41.073Z,33.71
2022-08-05T09:44:39.888Z,33.91
2022-08-05T09:46:07.169Z,34.19
2022-08-05T09:46:39.907Z,34.39
2022-08-05T09:47:54.938Z,34.43
2022-08-05T09:48:39.916Z,34.48
2022-08-05T09:49:40.500Z,34.13
2022-08-05T09:50:44.882Z,33.77
2022-08-05T09:51:40.098Z,33.59
2022-08-05T09:52:45.130Z,33.42
2022-08-05T09:53:54.794Z,33.06
2022-08-05T09:54:39.918Z,33.13
2022-08-05T09:55:56.993Z,33.11
2022-08-05T09:56:39.946Z,33.04
2022-08-05T09:57:39.933Z,32.98
2022-08-05T09:58:44.631Z,32.99
2022-08-05T09:59:39.948Z,32.97
2022-08-05T10:01:39.931Z,32.78
2022-08-05T10:02:39.982Z,32.56
2022-08-05T10:03:58.683Z,32.63
2022-08-05T10:04:39.975Z,32.75
2022-08-05T10:05:39.947Z,32.82
2022-08-05T10:06:39.970Z,32.74
2022-08-05T10:08:10.449Z,32.67
2022-08-05T10:08:42.487Z,32.76
2022-08-05T10:09:44.840Z,32.86
2022-08-05T10:10:39.975Z,32.71
2022-08-05T10:11:39.976Z,32.60
2022-08-05T10:12:49.490Z,32.50
2022-08-05T10:13:47.313Z,32.44
2022-08-05T10:14:39.972Z,32.42
2022-08-05T10:15:41.297Z,32.59
2022-08-05T10:16:43.105Z,32.84
2022-08-05T10:17:42.414Z,33.06
2022-08-05T10:18:39.995Z,33.13
2022-08-05T10:20:04.361Z,33.21
2022-08-05T10:20:40.009Z,33.37
2022-08-05T10:21:41.197Z,33.55
2022-08-05T10:22:42.920Z,33.81
2022-08-05T10:23:55.665Z,34.07
2022-08-05T10:24:40.000Z,34.34
2022-08-05T10:25:40.010Z,34.57
2022-08-05T10:26:51.953Z,34.54
2022-08-05T10:28:12.981Z,34.48
2022-08-05T10:28:40.014Z,34.57
2022-08-05T10:30:41.227Z,34.65
2022-08-05T10:31:20.945Z,34.73
2022-08-05T10:32:53.219Z,34.84
2022-08-05T10:32:53.684Z,34.80
2022-08-05T10:33:40.071Z,34.49
2022-08-05T10:34:40.739Z,34.24
2022-08-05T10:35:46.673Z,34.28
2022-08-05T10:36:40.081Z,34.32
2022-08-05T10:37:44.962Z,34.44
2022-08-05T10:38:40.031Z,34.58
2022-08-05T10:39:59.180Z,34.64
2022-08-05T10:40:43.506Z,34.56
2022-08-05T10:41:46.697Z,34.42
2022-08-05T10:42:40.060Z,34.45
2022-08-05T10:43:40.056Z,34.62
2022-08-05T10:44:41.975Z,34.80
2022-08-05T10:45:46.100Z,34.86
2022-08-05T10:46:40.172Z,34.85
2022-08-05T10:48:31.478Z,34.85
2022-08-05T10:48:31.710Z,34.83
2022-08-05T10:48:56.886Z,34.42
2022-08-05T10:49:49.131Z,34.13
2022-08-05T10:50:50.439Z,33.92
2022-08-05T10:51:41.089Z,33.92
2022-08-05T10:52:10.359Z,33.75
2022-08-05T10:52:40.128Z,33.81
2022-08-05T10:53:45.126Z,33.92
2022-08-05T10:54:57.034Z,33.86
2022-08-05T10:56:03.700Z,33.48
2022-08-05T10:56:41.748Z,33.40
2022-08-05T10:57:45.890Z,33.48
2022-08-05T11:00:02.127Z,33.48
2022-08-05T11:00:03.257Z,33.48
2022-08-05T11:00:19.688Z,33.48
2022-08-05T11:00:55.389Z,33.43
2022-08-05T11:01:54.578Z,33.57
2022-08-05T11:02:53.011Z,33.57
2022-08-05T11:03:23.557Z,33.63
2022-08-05T11:04:56.653Z,33.63
2022-08-05T11:05:08.760Z,33.72
2022-08-05T11:05:50.558Z,33.85
2022-08-05T11:06:40.122Z,33.97
2022-08-05T11:08:02.967Z,34.15
2022-08-05T11:08:40.143Z,34.38
2022-08-05T11:09:46.092Z,34.55
2022-08-05T11:10:50.453Z,34.54
2022-08-05T11:11:44.729Z,34.57
2022-08-05T11:13:40.116Z,34.42
2022-08-05T11:15:11.515Z,34.51
2022-08-05T11:15:59.523Z,34.72
2022-08-05T11:16:56.009Z,34.90
2022-08-05T11:18:07.473Z,35.06
2022-08-05T11:18:40.139Z,35.08
2022-08-05T11:20:11.257Z,35.09
2022-08-05T11:20:43.952Z,35.13
2022-08-05T11:21:48.899Z,35.23
2022-08-05T11:22:42.365Z,35.32
2022-08-05T11:24:04.962Z,35.37
2022-08-05T11:24:40.162Z,35.41
2022-08-05T11:26:04.815Z,35.52
2022-08-05T11:26:40.410Z,35.60
2022-08-05T11:27:50.914Z,35.71
2022-08-05T11:28:40.251Z,35.79
2022-08-05T11:30:40.185Z,35.64
2022-08-05T11:31:54.064Z,35.41
2022-08-05T11:32:40.216Z,35.18
2022-08-05T11:33:46.041Z,35.16
2022-08-05T11:34:51.765Z,35.20
2022-08-05T11:35:40.210Z,35.19
2022-08-05T11:36:42.711Z,35.20
2022-08-05T11:38:26.768Z,35.28
2022-08-05T11:38:45.934Z,35.15
2022-08-05T11:39:40.248Z,34.89
2022-08-05T11:40:40.207Z,34.43
2022-08-05T11:41:56.329Z,34.12
2022-08-05T11:42:40.633Z,33.81
2022-08-05T11:44:04.950Z,33.53
2022-08-05T11:44:52.894Z,33.42
2022-08-05T11:46:29.889Z,33.36
2022-08-05T11:47:10.011Z,33.37
2022-08-05T11:47:48.491Z,33.35
2022-08-05T11:48:40.316Z,33.46
2022-08-05T11:49:51.022Z,33.62
2022-08-05T11:50:40.283Z,33.79
2022-08-05T11:51:44.539Z,34.02
2022-08-05T11:52:40.256Z,34.25
2022-08-05T11:53:40.841Z,34.51
2022-08-05T11:54:40.412Z,34.68
2022-08-05T11:55:40.258Z,34.79
2022-08-05T11:56:40.669Z,34.86
2022-08-05T11:58:10.188Z,34.80
2022-08-05T11:58:40.265Z,34.81
2022-08-05T11:59:42.050Z,34.82
2022-08-05T12:00:41.275Z,34.76
2022-08-05T12:01:40.298Z,34.58
2022-08-05T12:02:40.378Z,34.34
2022-08-05T12:03:40.344Z,34.29
2022-08-05T12:04:40.283Z,34.30
2022-08-05T12:05:40.295Z,34.25
2022-08-05T12:06:40.302Z,34.20
2022-08-05T12:08:03.732Z,34.25
2022-08-05T12:08:40.318Z,34.36
2022-08-05T12:09:53.278Z,34.40
2022-08-05T12:10:45.435Z,34.23
2022-08-05T12:11:41.766Z,34.21
2022-08-05T12:12:40.301Z,34.26
2022-08-05T12:13:48.627Z,34.07
2022-08-05T12:14:40.304Z,34.08
2022-08-05T12:15:40.320Z,34.12
2022-08-05T12:16:40.303Z,33.99
2022-08-05T12:18:04.342Z,33.86
2022-08-05T12:18:40.379Z,33.82
2022-08-05T12:20:25.655Z,33.85
2022-08-05T12:20:40.623Z,33.84
2022-08-05T12:21:40.351Z,33.86
2022-08-05T12:22:40.331Z,33.88
2022-08-05T12:23:43.154Z,33.85
2022-08-05T12:24:40.364Z,33.81
2022-08-05T12:25:40.334Z,33.69
2022-08-05T12:26:45.386Z,33.70
2022-08-05T12:27:52.951Z,33.76
2022-08-05T12:28:40.334Z,33.82
2022-08-05T12:29:40.347Z,33.91
2022-08-05T12:30:45.930Z,34.04
2022-08-05T12:31:43.658Z,34.20
2022-08-05T12:32:40.340Z,34.33
2022-08-05T12:33:40.384Z,34.40
2022-08-05T12:34:40.360Z,34.52
2022-08-05T12:35:40.348Z,34.69
2022-08-05T12:36:40.428Z,34.85
2022-08-05T12:37:40.358Z,34.98
2022-08-05T12:38:41.096Z,35.10
2022-08-05T12:39:40.411Z,35.12
2022-08-05T12:40:44.152Z,35.13
2022-08-05T12:41:43.898Z,35.16
2022-08-05T12:42:40.387Z,35.14
2022-08-05T12:43:40.405Z,35.07
2022-08-05T12:44:40.871Z,34.81
2022-08-05T12:45:48.269Z,34.78
2022-08-05T12:46:40.386Z,34.84
2022-08-05T12:48:01.050Z,34.71
2022-08-05T12:48:40.389Z,34.70
2022-08-05T12:50:04.782Z,34.76
2022-08-05T12:50:40.397Z,34.74
2022-08-05T12:52:14.113Z,34.76
2022-08-05T12:52:42.197Z,34.83
2022-08-05T12:53:40.436Z,34.95
2022-08-05T12:54:40.427Z,35.08
2022-08-05T12:55:40.415Z,35.18
2022-08-05T12:56:40.428Z,35.29
2022-08-05T12:58:38.494Z,35.43
2022-08-05T12:58:53.870Z,35.55
2022-08-05T13:00:08.689Z,35.66
2022-08-05T13:02:00.259Z,35.73
2022-08-05T13:02:00.630Z,35.69
2022-08-05T13:02:40.923Z,35.78
2022-08-05T13:03:43.017Z,35.84
2022-08-05T13:04:41.805Z,35.81
2022-08-05T13:05:40.464Z,35.84
2022-08-05T13:08:00.204Z,35.90
2022-08-05T13:08:40.498Z,35.95
2022-08-05T13:09:40.454Z,35.96
2022-08-05T13:10:50.391Z,35.99
2022-08-05T13:12:01.747Z,35.94
2022-08-05T13:12:50.789Z,35.88
2022-08-05T13:14:05.547Z,35.86
2022-08-05T13:14:40.474Z,35.72
2022-08-05T13:15:50.270Z,35.50
2022-08-05T13:16:40.472Z,35.41
2022-08-05T13:17:41.904Z,35.35
2022-08-05T13:18:40.470Z,35.37
2022-08-05T13:19:51.939Z,35.18
2022-08-05T13:20:40.682Z,35.12
2022-08-05T13:21:47.917Z,35.06
2022-08-05T13:22:40.497Z,35.09
2022-08-05T13:23:50.992Z,35.16
2022-08-05T13:24:57.164Z,35.24
2022-08-05T13:25:52.033Z,35.35
2022-08-05T13:26:40.500Z,35.45
2022-08-05T13:27:40.856Z,35.53
2022-08-05T13:28:43.910Z,35.58
2022-08-05T13:29:40.517Z,35.65
2022-08-05T13:30:40.510Z,35.73
2022-08-05T13:32:04.451Z,35.81
2022-08-05T13:32:42.196Z,35.87
2022-08-05T13:34:24.191Z,35.92
2022-08-05T13:34:40.907Z,35.94
2022-08-05T13:35:47.363Z,35.92
2022-08-05T13:36:40.523Z,35.87
2022-08-05T13:37:40.978Z,35.84